createdAt,value
2018-09-09T00:00:06.903Z,13.80
2018-09-09T00:04:11.192Z,13.80
2018-09-09T00:08:15.502Z,13.70
2018-09-09T00:12:20.552Z,13.60
2018-09-09T00:16:24.989Z,13.60
2018-09-09T00:20:29.182Z,13.60
2018-09-09T00:24:33.632Z,13.50
2018-09-09T00:28:37.935Z,13.50
2018-09-09T00:32:42.282Z,13.40
2018-09-09T00:36:46.567Z,13.40
2018-09-09T00:40:50.951Z,13.40
2018-09-09T00:44:55.271Z,13.40
2018-09-09T00:49:04.752Z,13.40
2018-09-09T00:53:14.290Z,13.30
2018-09-09T00:57:18.504Z,13.30
2018-09-09T01:01:22.830Z,13.30
2018-09-09T01:05:27.009Z,13.20
2018-09-09T01:09:32.158Z,13.20
2018-09-09T01:13:36.595Z,13.20
2018-09-09T01:17:40.832Z,13.10
2018-09-09T01:21:45.160Z,13.10
2018-09-09T01:25:49.468Z,13.10
2018-09-09T01:29:53.792Z,13.00
2018-09-09T01:33:58.107Z,13.00
2018-09-09T01:38:03.461Z,13.00
2018-09-09T01:42:07.744Z,12.90
2018-09-09T01:46:12.152Z,12.90
2018-09-09T01:50:16.351Z,12.80
2018-09-09T01:54:20.713Z,12.80
2018-09-09T01:58:25.031Z,12.80
2018-09-09T02:02:29.309Z,12.80
2018-09-09T02:06:33.679Z,12.80
2018-09-09T02:10:38.005Z,12.70
2018-09-09T02:14:42.213Z,12.60
2018-09-09T02:18:46.669Z,12.60
2018-09-09T02:22:50.844Z,12.60
2018-09-09T02:26:55.197Z,12.50
2018-09-09T02:30:59.546Z,12.40
2018-09-09T02:35:04.098Z,12.40
2018-09-09T02:39:10.083Z,12.40
2018-09-09T02:43:14.593Z,12.50
2018-09-09T02:47:18.860Z,12.40
2018-09-09T02:51:23.108Z,12.30
2018-09-09T02:55:27.522Z,12.30
2018-09-09T02:59:31.738Z,12.20
2018-09-09T03:03:36.237Z,12.20
2018-09-09T03:07:40.516Z,12.20
2018-09-09T03:11:44.789Z,12.10
2018-09-09T03:15:49.047Z,12.10
2018-09-09T03:19:53.471Z,12.00
2018-09-09T03:23:57.655Z,12.00
2018-09-09T03:28:02.045Z,12.00
2018-09-09T03:32:06.437Z,11.90
2018-09-09T03:36:10.781Z,11.90
2018-09-09T03:40:14.996Z,11.90
2018-09-09T03:44:19.463Z,11.80
2018-09-09T03:48:23.662Z,11.80
2018-09-09T03:52:29.448Z,11.80
2018-09-09T03:56:33.641Z,11.70
2018-09-09T04:00:37.965Z,11.70
2018-09-09T04:04:42.334Z,11.70
2018-09-09T04:08:46.836Z,11.70
2018-09-09T04:12:51.185Z,11.70
2018-09-09T04:16:55.810Z,11.60
2018-09-09T04:21:00.096Z,11.60
2018-09-09T04:25:04.352Z,11.50
2018-09-09T04:29:08.645Z,11.50
2018-09-09T04:33:12.892Z,11.50
2018-09-09T04:37:17.096Z,11.50
2018-09-09T04:41:21.320Z,11.50
2018-09-09T04:45:25.517Z,11.60
2018-09-09T04:49:29.922Z,11.70
2018-09-09T04:53:34.201Z,11.60
2018-09-09T04:57:38.434Z,11.50
2018-09-09T05:01:42.857Z,11.50
2018-09-09T05:05:47.039Z,11.50
2018-09-09T05:09:51.421Z,11.50
2018-09-09T05:13:55.678Z,11.60
2018-09-09T05:17:59.861Z,11.60
2018-09-09T05:22:04.204Z,11.70
2018-09-09T05:26:08.397Z,11.80
2018-09-09T05:30:12.907Z,11.80
2018-09-09T05:34:17.279Z,11.80
2018-09-09T05:38:21.467Z,11.90
2018-09-09T05:42:27.921Z,12.00
2018-09-09T05:46:32.771Z,12.10
2018-09-09T05:50:37.029Z,12.20
2018-09-09T05:54:41.285Z,12.20
2018-09-09T05:58:45.545Z,12.30
2018-09-09T06:02:49.918Z,12.40
2018-09-09T06:06:54.137Z,12.60
2018-09-09T06:10:58.471Z,12.70
2018-09-09T06:15:02.786Z,12.80
2018-09-09T06:19:07.324Z,13.00
2018-09-09T06:23:11.964Z,13.20
2018-09-09T06:27:16.289Z,13.40
2018-09-09T06:31:20.503Z,13.60
2018-09-09T06:35:24.953Z,13.80
2018-09-09T06:39:29.188Z,14.00
2018-09-09T06:43:33.458Z,14.30
2018-09-09T06:47:38.073Z,14.50
2018-09-09T06:51:42.387Z,14.70
2018-09-09T06:55:47.632Z,15.00
2018-09-09T06:59:51.857Z,15.30
2018-09-09T07:03:56.151Z,15.60
2018-09-09T07:08:12.144Z,15.80
2018-09-09T07:12:16.384Z,16.10
2018-09-09T07:16:20.726Z,16.50
2018-09-09T07:20:24.971Z,16.90
2018-09-09T07:24:29.193Z,17.20
2018-09-09T07:28:34.453Z,17.60
2018-09-09T07:32:38.758Z,17.80
2018-09-09T07:36:43.066Z,18.00
2018-09-09T07:40:47.379Z,18.20
2018-09-09T07:44:51.629Z,18.60
2018-09-09T07:48:56.105Z,18.90
2018-09-09T07:53:00.366Z,19.30
2018-09-09T07:57:04.709Z,19.60
2018-09-09T08:01:09.397Z,20.00
2018-09-09T08:05:13.655Z,20.00
2018-09-09T08:10:05.771Z,20.40
2018-09-09T08:14:11.123Z,20.70
2018-09-09T08:18:15.539Z,21.20
2018-09-09T08:22:19.927Z,21.40
2018-09-09T08:26:24.269Z,21.40
2018-09-09T08:30:28.550Z,21.70
2018-09-09T08:34:32.853Z,21.80
2018-09-09T08:38:37.187Z,22.10
2018-09-09T08:42:41.415Z,22.70
2018-09-09T08:46:45.689Z,23.00
2018-09-09T08:50:50.173Z,23.40
2018-09-09T08:54:54.380Z,23.90
2018-09-09T08:58:58.722Z,25.40
2018-09-09T09:03:03.089Z,24.70
2018-09-09T09:07:07.292Z,25.30
2018-09-09T09:11:11.576Z,26.10
2018-09-09T09:15:15.954Z,26.20
2018-09-09T09:19:20.240Z,26.70
2018-09-09T09:23:24.460Z,26.60
2018-09-09T09:27:28.780Z,26.70
2018-09-09T09:31:33.245Z,25.60
2018-09-09T09:35:42.897Z,26.70
2018-09-09T09:39:47.151Z,26.10
2018-09-09T09:43:51.595Z,25.80
2018-09-09T09:47:55.930Z,25.40
2018-09-09T09:52:00.148Z,26.00
2018-09-09T09:56:04.764Z,25.40
2018-09-09T10:00:13.163Z,26.40
2018-09-09T10:04:17.429Z,26.30
2018-09-09T10:08:21.670Z,26.00
2018-09-09T10:12:25.972Z,26.10
2018-09-09T10:16:31.332Z,27.20
2018-09-09T10:20:35.545Z,27.60
2018-09-09T10:24:39.910Z,27.20
2018-09-09T10:28:44.229Z,27.80
2018-09-09T10:32:48.515Z,28.60
2018-09-09T10:36:52.946Z,28.90
2018-09-09T10:40:57.252Z,28.00
2018-09-09T10:45:01.682Z,28.90
2018-09-09T10:49:06.022Z,28.20
2018-09-09T10:53:10.277Z,30.40
2018-09-09T10:57:14.674Z,30.80
2018-09-09T11:01:18.966Z,29.80
2018-09-09T11:05:23.349Z,31.00
2018-09-09T11:09:27.651Z,30.90
2018-09-09T11:13:31.875Z,30.80
2018-09-09T11:17:36.478Z,30.40
2018-09-09T11:21:41.175Z,31.50
2018-09-09T11:25:45.515Z,32.40
2018-09-09T11:29:49.793Z,31.40
2018-09-09T11:33:54.054Z,31.90
2018-09-09T11:37:58.385Z,32.50
2018-09-09T11:42:02.611Z,32.50
2018-09-09T11:46:07.015Z,32.80
2018-09-09T11:50:11.416Z,32.20
2018-09-09T11:54:15.635Z,31.40
2018-09-09T11:58:20.189Z,32.30
2018-09-09T12:02:24.596Z,32.70
2018-09-09T12:06:28.811Z,32.10
2018-09-09T12:10:33.157Z,31.30
2018-09-09T12:14:37.477Z,32.00
2018-09-09T12:18:41.709Z,33.20
2018-09-09T12:22:45.926Z,34.40
2018-09-09T12:26:50.322Z,35.20
2018-09-09T12:30:54.529Z,35.20
2018-09-09T12:34:58.851Z,36.00
2018-09-09T12:39:03.281Z,35.20
2018-09-09T12:43:12.904Z,35.60
2018-09-09T12:47:22.366Z,34.20
2018-09-09T12:51:26.565Z,34.50
2018-09-09T12:55:30.857Z,35.60
2018-09-09T12:59:35.201Z,36.50
2018-09-09T13:03:44.142Z,35.60
2018-09-09T13:07:48.580Z,36.00
2018-09-09T13:11:52.971Z,36.70
2018-09-09T13:15:57.589Z,37.40
2018-09-09T13:20:01.800Z,37.20
2018-09-09T13:24:06.191Z,36.70
2018-09-09T13:28:10.384Z,37.20
2018-09-09T13:32:15.227Z,37.10
2018-09-09T13:36:19.865Z,36.70
2018-09-09T13:40:24.521Z,35.90
2018-09-09T13:44:28.870Z,36.60
2018-09-09T13:48:33.296Z,36.10
2018-09-09T13:52:37.587Z,35.80
2018-09-09T13:56:42.575Z,36.40
2018-09-09T14:00:46.817Z,35.40
2018-09-09T14:04:51.088Z,35.30
2018-09-09T14:08:55.315Z,34.80
2018-09-09T14:12:59.783Z,35.50
2018-09-09T14:17:04.206Z,36.40
2018-09-09T14:21:08.533Z,37.00
2018-09-09T14:25:12.930Z,36.70
2018-09-09T14:29:20.455Z,36.40
2018-09-09T14:33:25.209Z,36.30
2018-09-09T14:37:29.697Z,36.70
2018-09-09T14:41:34.108Z,35.10
2018-09-09T14:45:43.693Z,34.30
2018-09-09T14:49:52.260Z,32.90
2018-09-09T14:53:56.689Z,30.80
2018-09-09T14:58:00.875Z,29.50
2018-09-09T15:02:05.183Z,29.00
2018-09-09T15:06:09.586Z,28.90
2018-09-09T15:10:13.911Z,28.60
2018-09-09T15:14:18.509Z,27.50
2018-09-09T15:18:22.983Z,26.40
2018-09-09T15:22:27.285Z,25.80
2018-09-09T15:26:31.553Z,25.40
2018-09-09T15:30:35.876Z,25.30
2018-09-09T15:34:40.129Z,25.10
2018-09-09T15:38:44.495Z,24.60
2018-09-09T15:42:48.810Z,24.30
2018-09-09T15:46:53.165Z,24.20
2018-09-09T15:50:57.655Z,24.10
2018-09-09T15:55:03.293Z,24.10
2018-09-09T15:59:07.658Z,23.90
2018-09-09T16:03:12.297Z,23.80
2018-09-09T16:07:16.642Z,23.80
2018-09-09T16:11:20.986Z,24.00
2018-09-09T16:15:25.402Z,24.00
2018-09-09T16:19:30.153Z,23.90
2018-09-09T16:23:34.577Z,23.60
2018-09-09T16:27:38.776Z,23.50
2018-09-09T16:31:43.387Z,23.10
2018-09-09T16:35:47.987Z,22.90
2018-09-09T16:39:52.406Z,22.80
2018-09-09T16:43:56.679Z,22.50
2018-09-09T16:48:00.926Z,22.30
2018-09-09T16:52:05.261Z,22.10
2018-09-09T16:56:09.665Z,21.90
2018-09-09T17:00:13.987Z,21.60
2018-09-09T17:04:18.295Z,21.40
2018-09-09T17:08:23.043Z,21.20
2018-09-09T17:12:27.770Z,21.10
2018-09-09T17:16:32.001Z,20.70
2018-09-09T17:20:36.756Z,20.40
2018-09-09T17:24:41.059Z,20.30
2018-09-09T17:28:45.407Z,20.20
2018-09-09T17:32:49.695Z,20.00
2018-09-09T17:36:56.060Z,19.90
2018-09-09T17:41:00.316Z,19.80
2018-09-09T17:45:04.831Z,19.80
2018-09-09T17:49:09.124Z,19.70
2018-09-09T17:53:13.476Z,19.60
2018-09-09T17:57:17.839Z,19.50
2018-09-09T18:01:22.171Z,19.40
2018-09-09T18:05:26.430Z,19.30
2018-09-09T18:09:30.729Z,19.30
2018-09-09T18:13:34.993Z,19.30
2018-09-09T18:17:40.370Z,19.20
2018-09-09T18:21:44.618Z,19.20
2018-09-09T18:25:49.655Z,19.30
2018-09-09T18:29:53.992Z,19.30
2018-09-09T18:33:58.186Z,19.30
2018-09-09T18:38:05.128Z,19.10
2018-09-09T18:42:09.730Z,18.90
2018-09-09T18:46:14.488Z,18.70
2018-09-09T18:50:19.461Z,18.60
2018-09-09T18:54:24.168Z,18.40
2018-09-09T18:58:28.437Z,18.20
2018-09-09T19:02:33.354Z,18.10
2018-09-09T19:06:37.736Z,18.00
2018-09-09T19:10:43.076Z,17.90
2018-09-09T19:14:48.010Z,17.90
2018-09-09T19:18:52.336Z,18.00
2018-09-09T19:22:56.978Z,17.90
2018-09-09T19:27:01.725Z,18.00
2018-09-09T19:31:06.394Z,18.00
2018-09-09T19:35:11.157Z,18.00
2018-09-09T19:39:16.018Z,17.90
2018-09-09T19:43:21.919Z,17.80
2018-09-09T19:47:26.616Z,17.70
2018-09-09T19:51:32.157Z,17.60
2018-09-09T19:55:36.724Z,17.60
2018-09-09T19:59:41.185Z,17.50
2018-09-09T20:03:45.438Z,17.40
2018-09-09T20:07:51.273Z,17.30
2018-09-09T20:11:55.669Z,17.20
2018-09-09T20:16:00.161Z,17.20
2018-09-09T20:20:04.463Z,17.10
2018-09-09T20:24:08.720Z,17.00
2018-09-09T20:28:13.132Z,17.00
2018-09-09T20:32:17.583Z,16.90
2018-09-09T20:36:23.136Z,16.80
2018-09-09T20:40:27.339Z,16.70
2018-09-09T20:44:33.239Z,16.60
2018-09-09T20:48:38.118Z,16.50
2018-09-09T20:52:42.792Z,16.40
2018-09-09T20:56:47.063Z,16.30
2018-09-09T21:00:51.329Z,16.30
2018-09-09T21:04:55.726Z,16.20
2018-09-09T21:09:00.121Z,16.10
2018-09-09T21:13:04.535Z,16.00
2018-09-09T21:17:11.289Z,15.90
2018-09-09T21:21:16.026Z,15.90
2018-09-09T21:25:20.363Z,15.80
2018-09-09T21:29:24.619Z,15.70
2018-09-09T21:33:29.114Z,15.70
2018-09-09T21:37:33.327Z,15.60
2018-09-09T21:41:38.049Z,15.60
2018-09-09T21:45:42.477Z,15.50
2018-09-09T21:49:47.768Z,15.40
2018-09-09T21:53:52.044Z,15.40
2018-09-09T21:57:56.292Z,15.30
2018-09-09T22:02:03.480Z,15.30
2018-09-09T22:06:07.924Z,15.20
2018-09-09T22:10:12.185Z,15.10
2018-09-09T22:14:16.424Z,15.10
2018-09-09T22:18:20.742Z,15.00
2018-09-09T22:22:24.983Z,15.00
2018-09-09T22:26:29.463Z,15.00
2018-09-09T22:30:33.676Z,14.90
2018-09-09T22:34:38.020Z,14.90
2018-09-09T22:38:42.281Z,14.80
2018-09-09T22:42:46.738Z,14.70
2018-09-09T22:46:50.911Z,14.70
2018-09-09T22:50:55.297Z,14.60
2018-09-09T22:54:59.492Z,14.60
2018-09-09T22:59:03.700Z,14.60
2018-09-09T23:03:08.772Z,14.50
2018-09-09T23:07:12.979Z,14.50
2018-09-09T23:11:17.263Z,14.40
2018-09-09T23:15:26.444Z,14.30
2018-09-09T23:19:30.796Z,14.30
2018-09-09T23:23:35.127Z,14.20
2018-09-09T23:27:39.323Z,14.20
2018-09-09T23:31:43.611Z,14.10
2018-09-09T23:35:47.830Z,14.10
2018-09-09T23:39:52.031Z,14.10
2018-09-09T23:43:56.208Z,14.00
2018-09-09T23:48:00.738Z,13.90
2018-09-09T23:52:05.100Z,13.90
2018-09-09T23:56:09.268Z,13.90
